sensor_id;sensor_type;location;lat;lon;timestamp;temperature;humidity
42141;DHT22;27809;51.864;5.646;2023-12-29T00:01:30;11.30;23.30
42141;DHT22;27809;51.864;5.646;2023-12-29T00:03:56;11.30;23.30
42141;DHT22;27809;51.864;5.646;2023-12-29T00:06:21;11.30;23.10
42141;DHT22;27809;51.864;5.646;2023-12-29T00:08:47;11.40;23.20
42141;DHT22;27809;51.864;5.646;2023-12-29T00:11:19;11.40;23.00
42141;DHT22;27809;51.864;5.646;2023-12-29T00:13:45;11.30;23.40
42141;DHT22;27809;51.864;5.646;2023-12-29T00:16:11;11.30;24.30
42141;DHT22;27809;51.864;5.646;2023-12-29T00:18:39;11.30;25.90
42141;DHT22;27809;51.864;5.646;2023-12-29T00:21:08;11.30;27.10
42141;DHT22;27809;51.864;5.646;2023-12-29T00:23:33;11.20;28.20
42141;DHT22;27809;51.864;5.646;2023-12-29T00:25:59;11.20;29.30
42141;DHT22;27809;51.864;5.646;2023-12-29T00:28:24;11.20;30.00
42141;DHT22;27809;51.864;5.646;2023-12-29T00:30:50;11.20;30.40
42141;DHT22;27809;51.864;5.646;2023-12-29T00:33:15;11.20;30.50
42141;DHT22;27809;51.864;5.646;2023-12-29T00:35:41;11.20;30.60
42141;DHT22;27809;51.864;5.646;2023-12-29T00:38:07;11.20;30.80
42141;DHT22;27809;51.864;5.646;2023-12-29T00:40:33;11.20;30.30
42141;DHT22;27809;51.864;5.646;2023-12-29T00:43:02;11.20;30.00
42141;DHT22;27809;51.864;5.646;2023-12-29T00:45:27;11.30;29.90
42141;DHT22;27809;51.864;5.646;2023-12-29T00:47:59;11.20;29.40
42141;DHT22;27809;51.864;5.646;2023-12-29T00:50:25;11.30;29.00
42141;DHT22;27809;51.864;5.646;2023-12-29T00:52:51;11.30;28.90
42141;DHT22;27809;51.864;5.646;2023-12-29T00:55:17;11.30;28.60
42141;DHT22;27809;51.864;5.646;2023-12-29T00:57:43;11.30;28.30
42141;DHT22;27809;51.864;5.646;2023-12-29T01:00:11;11.30;28.40
42141;DHT22;27809;51.864;5.646;2023-12-29T01:02:38;11.40;28.70
42141;DHT22;27809;51.864;5.646;2023-12-29T01:05:04;11.30;29.20
42141;DHT22;27809;51.864;5.646;2023-12-29T01:07:30;11.30;29.90
42141;DHT22;27809;51.864;5.646;2023-12-29T01:09:55;11.30;30.60
42141;DHT22;27809;51.864;5.646;2023-12-29T01:12:21;11.30;31.50
42141;DHT22;27809;51.864;5.646;2023-12-29T01:14:46;11.20;32.40
42141;DHT22;27809;51.864;5.646;2023-12-29T01:17:12;11.20;34.10
42141;DHT22;27809;51.864;5.646;2023-12-29T01:19:37;11.20;35.70
42141;DHT22;27809;51.864;5.646;2023-12-29T01:22:03;11.20;37.20
42141;DHT22;27809;51.864;5.646;2023-12-29T01:24:29;11.20;38.60
42141;DHT22;27809;51.864;5.646;2023-12-29T01:26:55;11.20;39.30
42141;DHT22;27809;51.864;5.646;2023-12-29T01:29:21;11.10;40.00
42141;DHT22;27809;51.864;5.646;2023-12-29T01:31:46;11.10;40.60
42141;DHT22;27809;51.864;5.646;2023-12-29T01:34:13;11.10;41.40
42141;DHT22;27809;51.864;5.646;2023-12-29T01:36:38;11.10;42.40
42141;DHT22;27809;51.864;5.646;2023-12-29T01:39:04;11.10;42.90
42141;DHT22;27809;51.864;5.646;2023-12-29T01:41:29;11.10;43.50
42141;DHT22;27809;51.864;5.646;2023-12-29T01:46:29;11.10;44.30
42141;DHT22;27809;51.864;5.646;2023-12-29T01:48:54;11.10;44.50
42141;DHT22;27809;51.864;5.646;2023-12-29T01:51:25;11.10;44.70
42141;DHT22;27809;51.864;5.646;2023-12-29T01:53:52;11.10;44.80
42141;DHT22;27809;51.864;5.646;2023-12-29T01:56:19;11.00;45.20
42141;DHT22;27809;51.864;5.646;2023-12-29T01:58:46;11.10;45.70
42141;DHT22;27809;51.864;5.646;2023-12-29T02:01:14;11.00;46.60
42141;DHT22;27809;51.864;5.646;2023-12-29T02:03:40;11.00;47.20
42141;DHT22;27809;51.864;5.646;2023-12-29T02:06:06;11.00;47.90
42141;DHT22;27809;51.864;5.646;2023-12-29T02:08:32;11.00;48.70
42141;DHT22;27809;51.864;5.646;2023-12-29T02:10:58;11.00;49.90
42141;DHT22;27809;51.864;5.646;2023-12-29T02:13:24;11.00;51.10
42141;DHT22;27809;51.864;5.646;2023-12-29T02:15:54;11.00;51.90
42141;DHT22;27809;51.864;5.646;2023-12-29T02:18:22;11.00;52.70
42141;DHT22;27809;51.864;5.646;2023-12-29T02:20:49;11.00;54.00
42141;DHT22;27809;51.864;5.646;2023-12-29T02:23:14;11.00;56.10
42141;DHT22;27809;51.864;5.646;2023-12-29T02:25:40;10.90;58.10
42141;DHT22;27809;51.864;5.646;2023-12-29T02:28:24;10.90;60.10
42141;DHT22;27809;51.864;5.646;2023-12-29T02:31:01;10.80;62.60
42141;DHT22;27809;51.864;5.646;2023-12-29T02:33:33;10.80;65.30
42141;DHT22;27809;51.864;5.646;2023-12-29T02:36:03;10.80;68.00
42141;DHT22;27809;51.864;5.646;2023-12-29T02:38:30;10.80;70.20
42141;DHT22;27809;51.864;5.646;2023-12-29T02:40:57;10.70;71.70
42141;DHT22;27809;51.864;5.646;2023-12-29T02:43:22;10.70;73.70
42141;DHT22;27809;51.864;5.646;2023-12-29T02:45:48;10.70;75.40
42141;DHT22;27809;51.864;5.646;2023-12-29T02:48:14;10.70;76.80
42141;DHT22;27809;51.864;5.646;2023-12-29T02:50:39;10.70;77.80
42141;DHT22;27809;51.864;5.646;2023-12-29T02:53:05;10.70;78.80
42141;DHT22;27809;51.864;5.646;2023-12-29T02:55:30;10.70;79.70
42141;DHT22;27809;51.864;5.646;2023-12-29T02:57:56;10.70;80.40
42141;DHT22;27809;51.864;5.646;2023-12-29T03:00:22;10.70;80.80
42141;DHT22;27809;51.864;5.646;2023-12-29T03:02:47;10.70;80.90
42141;DHT22;27809;51.864;5.646;2023-12-29T03:05:14;10.60;80.70
42141;DHT22;27809;51.864;5.646;2023-12-29T03:07:39;10.60;80.40
42141;DHT22;27809;51.864;5.646;2023-12-29T03:10:07;10.60;80.50
42141;DHT22;27809;51.864;5.646;2023-12-29T03:12:32;10.70;80.30
42141;DHT22;27809;51.864;5.646;2023-12-29T03:14:58;10.70;80.10
42141;DHT22;27809;51.864;5.646;2023-12-29T03:17:24;10.70;79.10
42141;DHT22;27809;51.864;5.646;2023-12-29T03:19:49;10.70;78.50
42141;DHT22;27809;51.864;5.646;2023-12-29T03:22:15;10.70;77.60
42141;DHT22;27809;51.864;5.646;2023-12-29T03:24:41;10.70;76.50
42141;DHT22;27809;51.864;5.646;2023-12-29T03:27:08;10.70;75.50
42141;DHT22;27809;51.864;5.646;2023-12-29T03:29:33;10.70;74.30
42141;DHT22;27809;51.864;5.646;2023-12-29T03:31:59;10.80;73.10
42141;DHT22;27809;51.864;5.646;2023-12-29T03:34:25;10.80;72.00
42141;DHT22;27809;51.864;5.646;2023-12-29T03:36:50;10.80;70.70
42141;DHT22;27809;51.864;5.646;2023-12-29T03:39:16;10.80;69.70
42141;DHT22;27809;51.864;5.646;2023-12-29T03:41:41;10.80;69.00
42141;DHT22;27809;51.864;5.646;2023-12-29T03:44:07;10.90;67.60
42141;DHT22;27809;51.864;5.646;2023-12-29T03:46:33;10.90;66.50
42141;DHT22;27809;51.864;5.646;2023-12-29T03:48:59;10.80;63.50
42141;DHT22;27809;51.864;5.646;2023-12-29T03:51:24;10.90;62.20
42141;DHT22;27809;51.864;5.646;2023-12-29T03:53:50;10.90;59.60
42141;DHT22;27809;51.864;5.646;2023-12-29T03:56:17;10.90;58.00
42141;DHT22;27809;51.864;5.646;2023-12-29T03:58:43;10.90;56.80
42141;DHT22;27809;51.864;5.646;2023-12-29T04:01:13;10.90;55.40
42141;DHT22;27809;51.864;5.646;2023-12-29T04:03:40;10.90;54.00
42141;DHT22;27809;51.864;5.646;2023-12-29T04:06:06;10.90;52.30
42141;DHT22;27809;51.864;5.646;2023-12-29T04:08:32;10.90;50.70
42141;DHT22;27809;51.864;5.646;2023-12-29T04:10:58;10.80;49.20
42141;DHT22;27809;51.864;5.646;2023-12-29T04:13:23;10.70;48.10
42141;DHT22;27809;51.864;5.646;2023-12-29T04:15:49;10.70;47.90
42141;DHT22;27809;51.864;5.646;2023-12-29T04:18:15;10.70;47.30
42141;DHT22;27809;51.864;5.646;2023-12-29T04:20:40;10.70;47.20
42141;DHT22;27809;51.864;5.646;2023-12-29T04:23:06;10.70;47.50
42141;DHT22;27809;51.864;5.646;2023-12-29T04:25:33;10.80;47.70
42141;DHT22;27809;51.864;5.646;2023-12-29T04:27:59;10.80;47.70
42141;DHT22;27809;51.864;5.646;2023-12-29T04:30:25;10.80;47.90
42141;DHT22;27809;51.864;5.646;2023-12-29T04:32:50;10.70;47.50
42141;DHT22;27809;51.864;5.646;2023-12-29T04:35:16;10.80;47.40
42141;DHT22;27809;51.864;5.646;2023-12-29T04:37:44;10.80;47.20
42141;DHT22;27809;51.864;5.646;2023-12-29T04:40:10;10.80;46.80
42141;DHT22;27809;51.864;5.646;2023-12-29T04:42:35;10.80;46.50
42141;DHT22;27809;51.864;5.646;2023-12-29T04:45:01;10.80;45.50
42141;DHT22;27809;51.864;5.646;2023-12-29T04:47:26;10.80;44.60
42141;DHT22;27809;51.864;5.646;2023-12-29T04:49:52;10.70;43.90
42141;DHT22;27809;51.864;5.646;2023-12-29T04:52:18;10.70;43.50
42141;DHT22;27809;51.864;5.646;2023-12-29T04:54:43;10.80;43.10
42141;DHT22;27809;51.864;5.646;2023-12-29T04:57:09;10.80;42.00
42141;DHT22;27809;51.864;5.646;2023-12-29T04:59:34;10.80;40.90
42141;DHT22;27809;51.864;5.646;2023-12-29T05:02:00;10.80;39.80
42141;DHT22;27809;51.864;5.646;2023-12-29T05:04:25;10.90;38.90
42141;DHT22;27809;51.864;5.646;2023-12-29T05:06:51;10.80;38.00
42141;DHT22;27809;51.864;5.646;2023-12-29T05:09:17;10.90;37.50
42141;DHT22;27809;51.864;5.646;2023-12-29T05:11:43;10.90;36.90
42141;DHT22;27809;51.864;5.646;2023-12-29T05:14:08;10.90;36.50
42141;DHT22;27809;51.864;5.646;2023-12-29T05:16:34;10.90;36.10
42141;DHT22;27809;51.864;5.646;2023-12-29T05:19:00;10.90;35.80
42141;DHT22;27809;51.864;5.646;2023-12-29T05:21:26;10.90;35.50
42141;DHT22;27809;51.864;5.646;2023-12-29T05:23:52;10.80;35.30
42141;DHT22;27809;51.864;5.646;2023-12-29T05:26:17;10.80;35.30
42141;DHT22;27809;51.864;5.646;2023-12-29T05:28:43;10.80;35.10
42141;DHT22;27809;51.864;5.646;2023-12-29T05:31:09;10.70;35.30
42141;DHT22;27809;51.864;5.646;2023-12-29T05:33:35;10.70;35.60
42141;DHT22;27809;51.864;5.646;2023-12-29T05:36:08;10.80;35.50
42141;DHT22;27809;51.864;5.646;2023-12-29T05:38:35;10.70;35.30
42141;DHT22;27809;51.864;5.646;2023-12-29T05:41:04;10.70;35.30
42141;DHT22;27809;51.864;5.646;2023-12-29T05:43:33;10.70;35.70
42141;DHT22;27809;51.864;5.646;2023-12-29T05:46:00;10.60;36.00
42141;DHT22;27809;51.864;5.646;2023-12-29T05:48:26;10.60;36.40
42141;DHT22;27809;51.864;5.646;2023-12-29T05:50:52;10.60;36.50
42141;DHT22;27809;51.864;5.646;2023-12-29T05:53:18;10.60;36.70
42141;DHT22;27809;51.864;5.646;2023-12-29T05:55:44;10.50;36.70
42141;DHT22;27809;51.864;5.646;2023-12-29T05:58:10;10.50;37.10
42141;DHT22;27809;51.864;5.646;2023-12-29T06:00:38;10.40;37.50
42141;DHT22;27809;51.864;5.646;2023-12-29T06:03:05;10.40;38.30
42141;DHT22;27809;51.864;5.646;2023-12-29T06:05:31;10.40;39.00
42141;DHT22;27809;51.864;5.646;2023-12-29T06:07:57;10.40;40.00
42141;DHT22;27809;51.864;5.646;2023-12-29T06:10:22;10.40;40.90
42141;DHT22;27809;51.864;5.646;2023-12-29T06:12:49;10.30;41.90
42141;DHT22;27809;51.864;5.646;2023-12-29T06:15:14;10.30;42.70
42141;DHT22;27809;51.864;5.646;2023-12-29T06:17:40;10.40;43.50
42141;DHT22;27809;51.864;5.646;2023-12-29T06:20:07;10.30;44.10
42141;DHT22;27809;51.864;5.646;2023-12-29T06:22:33;10.30;44.60
42141;DHT22;27809;51.864;5.646;2023-12-29T06:24:59;10.30;45.50
42141;DHT22;27809;51.864;5.646;2023-12-29T06:27:25;10.30;46.40
42141;DHT22;27809;51.864;5.646;2023-12-29T06:29:51;10.30;47.40
42141;DHT22;27809;51.864;5.646;2023-12-29T06:32:16;10.30;48.40
42141;DHT22;27809;51.864;5.646;2023-12-29T06:34:42;10.30;49.80
42141;DHT22;27809;51.864;5.646;2023-12-29T06:37:08;10.30;50.90
42141;DHT22;27809;51.864;5.646;2023-12-29T06:39:34;10.30;51.80
42141;DHT22;27809;51.864;5.646;2023-12-29T06:41:59;10.30;52.70
42141;DHT22;27809;51.864;5.646;2023-12-29T06:44:25;10.30;53.80
42141;DHT22;27809;51.864;5.646;2023-12-29T06:46:51;10.30;55.10
42141;DHT22;27809;51.864;5.646;2023-12-29T06:49:16;10.40;56.70
42141;DHT22;27809;51.864;5.646;2023-12-29T06:51:42;10.40;58.60
42141;DHT22;27809;51.864;5.646;2023-12-29T06:54:07;10.40;60.90
42141;DHT22;27809;51.864;5.646;2023-12-29T06:56:33;10.30;63.60
42141;DHT22;27809;51.864;5.646;2023-12-29T06:58:58;10.30;66.80
42141;DHT22;27809;51.864;5.646;2023-12-29T07:01:24;10.30;69.30
42141;DHT22;27809;51.864;5.646;2023-12-29T07:03:50;10.30;70.90
42141;DHT22;27809;51.864;5.646;2023-12-29T07:06:15;10.20;73.70
42141;DHT22;27809;51.864;5.646;2023-12-29T07:08:41;10.20;76.00
42141;DHT22;27809;51.864;5.646;2023-12-29T07:11:10;10.20;77.80
42141;DHT22;27809;51.864;5.646;2023-12-29T07:13:39;10.20;80.40
42141;DHT22;27809;51.864;5.646;2023-12-29T07:16:05;10.10;82.90
42141;DHT22;27809;51.864;5.646;2023-12-29T07:18:30;10.10;85.10
42141;DHT22;27809;51.864;5.646;2023-12-29T07:20:56;10.20;87.90
42141;DHT22;27809;51.864;5.646;2023-12-29T07:23:22;10.20;89.90
42141;DHT22;27809;51.864;5.646;2023-12-29T07:25:48;10.10;91.10
42141;DHT22;27809;51.864;5.646;2023-12-29T07:28:14;10.10;92.40
42141;DHT22;27809;51.864;5.646;2023-12-29T07:30:39;10.10;93.90
42141;DHT22;27809;51.864;5.646;2023-12-29T07:33:05;10.00;95.30
42141;DHT22;27809;51.864;5.646;2023-12-29T07:35:31;10.00;96.90
42141;DHT22;27809;51.864;5.646;2023-12-29T07:37:56;10.00;98.30
42141;DHT22;27809;51.864;5.646;2023-12-29T07:40:22;10.00;99.70
42141;DHT22;27809;51.864;5.646;2023-12-29T07:42:48;10.00;99.90
42141;DHT22;27809;51.864;5.646;2023-12-29T07:45:16;10.10;99.90
42141;DHT22;27809;51.864;5.646;2023-12-29T07:47:42;10.10;99.90
42141;DHT22;27809;51.864;5.646;2023-12-29T07:50:07;10.10;99.90
42141;DHT22;27809;51.864;5.646;2023-12-29T07:52:33;10.10;99.90
42141;DHT22;27809;51.864;5.646;2023-12-29T07:54:58;10.10;99.90
42141;DHT22;27809;51.864;5.646;2023-12-29T07:57:24;10.10;99.90
42141;DHT22;27809;51.864;5.646;2023-12-29T07:59:50;10.10;99.90
42141;DHT22;27809;51.864;5.646;2023-12-29T08:02:15;10.10;99.90
42141;DHT22;27809;51.864;5.646;2023-12-29T08:04:42;10.20;99.90
42141;DHT22;27809;51.864;5.646;2023-12-29T08:07:07;10.20;99.90
42141;DHT22;27809;51.864;5.646;2023-12-29T08:09:33;10.20;99.90
42141;DHT22;27809;51.864;5.646;2023-12-29T08:11:58;10.20;99.90
42141;DHT22;27809;51.864;5.646;2023-12-29T08:14:24;10.20;99.90
42141;DHT22;27809;51.864;5.646;2023-12-29T08:16:50;10.20;99.90
42141;DHT22;27809;51.864;5.646;2023-12-29T08:19:15;10.20;99.90
42141;DHT22;27809;51.864;5.646;2023-12-29T08:21:41;10.20;99.90
42141;DHT22;27809;51.864;5.646;2023-12-29T08:24:07;10.20;99.90
42141;DHT22;27809;51.864;5.646;2023-12-29T08:26:32;10.30;99.90
42141;DHT22;27809;51.864;5.646;2023-12-29T08:28:58;10.30;99.90
42141;DHT22;27809;51.864;5.646;2023-12-29T08:31:24;10.30;99.90
42141;DHT22;27809;51.864;5.646;2023-12-29T08:33:51;10.30;99.90
42141;DHT22;27809;51.864;5.646;2023-12-29T08:36:21;10.30;99.90
42141;DHT22;27809;51.864;5.646;2023-12-29T08:38:46;10.40;99.90
42141;DHT22;27809;51.864;5.646;2023-12-29T08:41:14;10.30;99.90
42141;DHT22;27809;51.864;5.646;2023-12-29T08:43:39;10.40;99.90
42141;DHT22;27809;51.864;5.646;2023-12-29T08:46:05;10.40;99.90
42141;DHT22;27809;51.864;5.646;2023-12-29T08:48:30;10.40;99.90
42141;DHT22;27809;51.864;5.646;2023-12-29T08:50:56;10.40;99.90
42141;DHT22;27809;51.864;5.646;2023-12-29T08:53:21;10.50;99.90
42141;DHT22;27809;51.864;5.646;2023-12-29T08:55:47;10.50;99.90
42141;DHT22;27809;51.864;5.646;2023-12-29T08:58:13;10.50;99.90
42141;DHT22;27809;51.864;5.646;2023-12-29T09:00:38;10.50;99.90
42141;DHT22;27809;51.864;5.646;2023-12-29T09:03:04;10.50;99.90
42141;DHT22;27809;51.864;5.646;2023-12-29T09:05:30;10.60;99.90
42141;DHT22;27809;51.864;5.646;2023-12-29T09:07:55;10.60;99.90
42141;DHT22;27809;51.864;5.646;2023-12-29T09:10:21;10.60;99.90
42141;DHT22;27809;51.864;5.646;2023-12-29T09:12:48;10.60;99.90
42141;DHT22;27809;51.864;5.646;2023-12-29T09:15:14;10.60;99.90
42141;DHT22;27809;51.864;5.646;2023-12-29T09:17:39;10.70;99.90
42141;DHT22;27809;51.864;5.646;2023-12-29T09:20:06;10.70;99.90
42141;DHT22;27809;51.864;5.646;2023-12-29T09:22:31;10.70;99.90
42141;DHT22;27809;51.864;5.646;2023-12-29T09:24:57;10.70;99.90
42141;DHT22;27809;51.864;5.646;2023-12-29T09:27:23;10.70;99.90
42141;DHT22;27809;51.864;5.646;2023-12-29T09:29:49;10.70;99.90
42141;DHT22;27809;51.864;5.646;2023-12-29T09:32:15;10.80;99.90
42141;DHT22;27809;51.864;5.646;2023-12-29T09:34:40;10.80;99.90
42141;DHT22;27809;51.864;5.646;2023-12-29T09:37:06;10.80;99.90
42141;DHT22;27809;51.864;5.646;2023-12-29T09:39:31;10.80;99.90
42141;DHT22;27809;51.864;5.646;2023-12-29T09:42:01;10.80;99.90
42141;DHT22;27809;51.864;5.646;2023-12-29T09:44:30;10.80;99.90
42141;DHT22;27809;51.864;5.646;2023-12-29T09:47:01;10.90;99.90
42141;DHT22;27809;51.864;5.646;2023-12-29T09:49:34;10.90;99.90
42141;DHT22;27809;51.864;5.646;2023-12-29T09:52:02;10.90;99.90
42141;DHT22;27809;51.864;5.646;2023-12-29T09:54:29;11.00;99.90
42141;DHT22;27809;51.864;5.646;2023-12-29T09:56:55;11.00;99.90
42141;DHT22;27809;51.864;5.646;2023-12-29T09:59:21;11.30;99.90
42141;DHT22;27809;51.864;5.646;2023-12-29T10:01:48;11.40;99.90
42141;DHT22;27809;51.864;5.646;2023-12-29T10:04:14;11.50;99.90
42141;DHT22;27809;51.864;5.646;2023-12-29T10:06:42;11.50;99.90
42141;DHT22;27809;51.864;5.646;2023-12-29T10:09:12;11.50;99.90
42141;DHT22;27809;51.864;5.646;2023-12-29T10:11:38;11.50;99.90
42141;DHT22;27809;51.864;5.646;2023-12-29T10:14:19;11.50;99.90
42141;DHT22;27809;51.864;5.646;2023-12-29T10:16:52;11.50;99.40
42141;DHT22;27809;51.864;5.646;2023-12-29T10:19:27;11.50;98.40
42141;DHT22;27809;51.864;5.646;2023-12-29T10:22:05;11.50;98.90
42141;DHT22;27809;51.864;5.646;2023-12-29T10:24:33;11.50;96.80
42141;DHT22;27809;51.864;5.646;2023-12-29T10:26:59;11.50;96.00
42141;DHT22;27809;51.864;5.646;2023-12-29T10:29:27;11.60;95.70
42141;DHT22;27809;51.864;5.646;2023-12-29T10:31:52;11.50;94.80
42141;DHT22;27809;51.864;5.646;2023-12-29T10:36:48;11.50;94.30
42141;DHT22;27809;51.864;5.646;2023-12-29T10:39:14;11.50;94.00
42141;DHT22;27809;51.864;5.646;2023-12-29T10:41:40;11.50;93.90
42141;DHT22;27809;51.864;5.646;2023-12-29T10:44:07;11.40;93.70
42141;DHT22;27809;51.864;5.646;2023-12-29T10:46:33;11.50;93.70
42141;DHT22;27809;51.864;5.646;2023-12-29T10:49:13;11.50;93.80
42141;DHT22;27809;51.864;5.646;2023-12-29T10:51:40;11.50;93.80
42141;DHT22;27809;51.864;5.646;2023-12-29T10:54:06;11.60;94.00
42141;DHT22;27809;51.864;5.646;2023-12-29T10:56:32;11.60;93.90
42141;DHT22;27809;51.864;5.646;2023-12-29T10:59:02;11.70;93.60
42141;DHT22;27809;51.864;5.646;2023-12-29T11:01:37;11.70;92.70
42141;DHT22;27809;51.864;5.646;2023-12-29T11:04:06;11.70;91.90
42141;DHT22;27809;51.864;5.646;2023-12-29T11:06:43;11.70;90.20
42141;DHT22;27809;51.864;5.646;2023-12-29T11:09:10;11.80;87.20
42141;DHT22;27809;51.864;5.646;2023-12-29T11:11:37;11.80;82.60
42141;DHT22;27809;51.864;5.646;2023-12-29T11:14:03;11.80;79.50
42141;DHT22;27809;51.864;5.646;2023-12-29T11:16:30;11.90;78.20
42141;DHT22;27809;51.864;5.646;2023-12-29T11:18:57;11.90;75.20
42141;DHT22;27809;51.864;5.646;2023-12-29T11:21:25;12.00;73.40
42141;DHT22;27809;51.864;5.646;2023-12-29T11:23:51;12.00;72.30
42141;DHT22;27809;51.864;5.646;2023-12-29T11:26:18;12.10;70.50
42141;DHT22;27809;51.864;5.646;2023-12-29T11:28:46;12.10;68.70
42141;DHT22;27809;51.864;5.646;2023-12-29T11:31:17;12.10;66.20
42141;DHT22;27809;51.864;5.646;2023-12-29T11:33:50;12.20;64.20
42141;DHT22;27809;51.864;5.646;2023-12-29T11:36:28;12.20;62.50
42141;DHT22;27809;51.864;5.646;2023-12-29T11:44:00;12.30;54.80
42141;DHT22;27809;51.864;5.646;2023-12-29T11:46:40;12.20;53.20
42141;DHT22;27809;51.864;5.646;2023-12-29T11:49:08;12.20;51.90
42141;DHT22;27809;51.864;5.646;2023-12-29T11:51:46;12.20;50.40
42141;DHT22;27809;51.864;5.646;2023-12-29T11:54:22;12.30;49.10
42141;DHT22;27809;51.864;5.646;2023-12-29T11:56:48;12.20;46.40
42141;DHT22;27809;51.864;5.646;2023-12-29T11:59:16;12.20;45.80
42141;DHT22;27809;51.864;5.646;2023-12-29T12:01:43;12.20;44.40
42141;DHT22;27809;51.864;5.646;2023-12-29T12:04:38;12.20;44.00
42141;DHT22;27809;51.864;5.646;2023-12-29T12:09:49;12.30;42.50
42141;DHT22;27809;51.864;5.646;2023-12-29T12:12:38;12.30;42.70
42141;DHT22;27809;51.864;5.646;2023-12-29T12:17:55;12.30;42.10
42141;DHT22;27809;51.864;5.646;2023-12-29T12:20:21;12.30;42.10
42141;DHT22;27809;51.864;5.646;2023-12-29T12:22:50;12.30;41.20
42141;DHT22;27809;51.864;5.646;2023-12-29T12:25:22;12.40;40.90
42141;DHT22;27809;51.864;5.646;2023-12-29T12:27:48;12.40;41.00
42141;DHT22;27809;51.864;5.646;2023-12-29T12:30:18;12.40;40.30
42141;DHT22;27809;51.864;5.646;2023-12-29T12:32:44;12.40;40.00
42141;DHT22;27809;51.864;5.646;2023-12-29T12:35:14;12.30;38.90
42141;DHT22;27809;51.864;5.646;2023-12-29T12:37:40;12.30;38.00
42141;DHT22;27809;51.864;5.646;2023-12-29T12:40:06;12.30;38.00
42141;DHT22;27809;51.864;5.646;2023-12-29T12:42:40;12.30;38.60
42141;DHT22;27809;51.864;5.646;2023-12-29T12:45:13;12.40;38.70
42141;DHT22;27809;51.864;5.646;2023-12-29T12:47:45;12.40;38.70
42141;DHT22;27809;51.864;5.646;2023-12-29T12:50:14;12.40;38.50
42141;DHT22;27809;51.864;5.646;2023-12-29T12:52:40;12.40;38.50
42141;DHT22;27809;51.864;5.646;2023-12-29T12:55:07;12.40;38.20
42141;DHT22;27809;51.864;5.646;2023-12-29T12:57:34;12.40;37.90
42141;DHT22;27809;51.864;5.646;2023-12-29T13:00:00;12.40;37.50
42141;DHT22;27809;51.864;5.646;2023-12-29T13:02:28;12.40;37.30
42141;DHT22;27809;51.864;5.646;2023-12-29T13:04:55;12.30;37.30
42141;DHT22;27809;51.864;5.646;2023-12-29T13:07:21;12.30;37.30
42141;DHT22;27809;51.864;5.646;2023-12-29T13:09:48;12.30;37.10
42141;DHT22;27809;51.864;5.646;2023-12-29T13:12:15;12.30;36.60
42141;DHT22;27809;51.864;5.646;2023-12-29T13:14:42;12.20;36.40
42141;DHT22;27809;51.864;5.646;2023-12-29T13:17:09;12.20;36.20
42141;DHT22;27809;51.864;5.646;2023-12-29T13:19:38;12.10;35.30
42141;DHT22;27809;51.864;5.646;2023-12-29T13:22:09;12.10;35.30
42141;DHT22;27809;51.864;5.646;2023-12-29T13:24:36;12.10;35.90
42141;DHT22;27809;51.864;5.646;2023-12-29T13:27:07;12.10;37.60
42141;DHT22;27809;51.864;5.646;2023-12-29T13:29:36;12.10;37.80
42141;DHT22;27809;51.864;5.646;2023-12-29T13:37:35;12.10;39.80
42141;DHT22;27809;51.864;5.646;2023-12-29T13:42:40;12.10;41.40
42141;DHT22;27809;51.864;5.646;2023-12-29T13:45:08;12.10;42.10
42141;DHT22;27809;51.864;5.646;2023-12-29T13:47:36;12.00;42.50
42141;DHT22;27809;51.864;5.646;2023-12-29T13:50:01;12.00;43.80
42141;DHT22;27809;51.864;5.646;2023-12-29T13:52:28;12.00;44.90
42141;DHT22;27809;51.864;5.646;2023-12-29T13:54:54;12.00;46.20
42141;DHT22;27809;51.864;5.646;2023-12-29T13:57:32;12.00;47.50
42141;DHT22;27809;51.864;5.646;2023-12-29T14:02:44;11.90;51.30
42141;DHT22;27809;51.864;5.646;2023-12-29T14:10:35;11.70;57.70
42141;DHT22;27809;51.864;5.646;2023-12-29T14:13:12;11.70;59.50
42141;DHT22;27809;51.864;5.646;2023-12-29T14:15:40;11.50;61.80
42141;DHT22;27809;51.864;5.646;2023-12-29T14:20:39;11.60;72.30
42141;DHT22;27809;51.864;5.646;2023-12-29T14:23:08;11.60;72.60
42141;DHT22;27809;51.864;5.646;2023-12-29T14:25:35;11.50;73.60
42141;DHT22;27809;51.864;5.646;2023-12-29T14:28:15;11.50;76.10
42141;DHT22;27809;51.864;5.646;2023-12-29T14:30:41;11.40;79.40
42141;DHT22;27809;51.864;5.646;2023-12-29T14:33:07;11.30;80.60
42141;DHT22;27809;51.864;5.646;2023-12-29T14:35:33;11.20;82.30
42141;DHT22;27809;51.864;5.646;2023-12-29T14:37:59;11.10;84.20
42141;DHT22;27809;51.864;5.646;2023-12-29T14:40:24;11.00;85.60
42141;DHT22;27809;51.864;5.646;2023-12-29T14:42:50;11.00;86.50
42141;DHT22;27809;51.864;5.646;2023-12-29T14:45:15;11.00;88.10
42141;DHT22;27809;51.864;5.646;2023-12-29T14:47:41;10.90;89.80
42141;DHT22;27809;51.864;5.646;2023-12-29T14:50:07;10.90;90.60
42141;DHT22;27809;51.864;5.646;2023-12-29T14:52:32;10.90;91.50
42141;DHT22;27809;51.864;5.646;2023-12-29T14:54:58;10.90;92.60
42141;DHT22;27809;51.864;5.646;2023-12-29T14:57:23;10.90;93.60
42141;DHT22;27809;51.864;5.646;2023-12-29T14:59:49;10.90;95.10
42141;DHT22;27809;51.864;5.646;2023-12-29T15:02:15;10.80;96.00
42141;DHT22;27809;51.864;5.646;2023-12-29T15:04:41;10.80;96.80
42141;DHT22;27809;51.864;5.646;2023-12-29T15:07:06;10.80;98.00
42141;DHT22;27809;51.864;5.646;2023-12-29T15:09:32;10.90;98.90
42141;DHT22;27809;51.864;5.646;2023-12-29T15:11:59;10.90;99.70
42141;DHT22;27809;51.864;5.646;2023-12-29T15:14:25;10.90;99.90
42141;DHT22;27809;51.864;5.646;2023-12-29T15:16:50;10.90;99.90
42141;DHT22;27809;51.864;5.646;2023-12-29T15:19:16;10.90;99.90
42141;DHT22;27809;51.864;5.646;2023-12-29T15:21:41;10.90;99.90
42141;DHT22;27809;51.864;5.646;2023-12-29T15:24:07;10.90;99.90
42141;DHT22;27809;51.864;5.646;2023-12-29T15:26:33;10.90;99.90
42141;DHT22;27809;51.864;5.646;2023-12-29T15:28:59;10.90;99.90
42141;DHT22;27809;51.864;5.646;2023-12-29T15:31:25;10.90;99.90
42141;DHT22;27809;51.864;5.646;2023-12-29T15:33:51;10.90;99.90
42141;DHT22;27809;51.864;5.646;2023-12-29T15:36:18;10.90;99.90
42141;DHT22;27809;51.864;5.646;2023-12-29T15:38:51;10.90;99.90
42141;DHT22;27809;51.864;5.646;2023-12-29T15:41:17;10.90;99.90
42141;DHT22;27809;51.864;5.646;2023-12-29T15:43:43;10.90;99.90
42141;DHT22;27809;51.864;5.646;2023-12-29T15:46:16;10.90;99.90
42141;DHT22;27809;51.864;5.646;2023-12-29T15:48:42;10.90;99.90
42141;DHT22;27809;51.864;5.646;2023-12-29T15:51:09;10.90;99.90
42141;DHT22;27809;51.864;5.646;2023-12-29T15:53:34;10.80;99.90
42141;DHT22;27809;51.864;5.646;2023-12-29T15:56:00;10.80;99.90
42141;DHT22;27809;51.864;5.646;2023-12-29T15:58:28;10.80;99.90
42141;DHT22;27809;51.864;5.646;2023-12-29T16:00:54;10.80;99.90
42141;DHT22;27809;51.864;5.646;2023-12-29T16:03:19;10.70;99.90